createdAt,value
2023-05-05T00:00:00.010Z,101512.59
2023-05-05T00:02:28.102Z,101516.97
2023-05-05T00:04:57.252Z,101518.81
2023-05-05T00:07:25.234Z,101516.28
2023-05-05T00:09:54.469Z,101523.47
2023-05-05T00:12:22.399Z,101526.22
2023-05-05T00:14:50.372Z,101528.00
2023-05-05T00:17:18.260Z,101527.16
2023-05-05T00:19:46.185Z,101515.78
2023-05-05T00:22:14.021Z,101519.97
2023-05-05T00:24:42.015Z,101499.63
2023-05-05T00:27:11.838Z,101512.13
2023-05-05T00:29:39.599Z,101506.00
2023-05-05T00:32:07.486Z,101520.16
2023-05-05T00:34:35.369Z,101513.97
2023-05-05T00:37:04.173Z,101510.50
2023-05-05T00:39:33.264Z,101511.34
2023-05-05T00:42:01.346Z,101499.81
2023-05-05T00:44:40.345Z,101491.88
2023-05-05T00:47:09.466Z,101487.47
2023-05-05T00:49:38.187Z,101484.84
2023-05-05T00:52:07.579Z,101485.81
2023-05-05T00:54:35.849Z,101494.66
2023-05-05T00:57:04.179Z,101492.00
2023-05-05T00:59:34.047Z,101485.09
2023-05-05T01:02:03.555Z,101485.25
2023-05-05T01:04:31.404Z,101486.94
2023-05-05T01:07:16.319Z,101490.50
2023-05-05T01:10:17.959Z,101480.91
2023-05-05T01:12:52.896Z,101476.44
2023-05-05T01:15:28.312Z,101464.19
2023-05-05T01:18:04.988Z,101479.16
2023-05-05T01:20:41.932Z,101488.13
2023-05-05T01:23:17.932Z,101471.41
2023-05-05T01:26:14.233Z,101484.88
2023-05-05T01:29:04.468Z,101483.13
2023-05-05T01:31:51.880Z,101490.34
2023-05-05T01:34:24.630Z,101480.66
2023-05-05T01:36:59.423Z,101486.13
2023-05-05T01:39:32.564Z,101490.53
2023-05-05T01:42:06.186Z,101488.00
2023-05-05T01:44:36.212Z,101511.88
2023-05-05T01:47:07.583Z,101508.47
2023-05-05T01:49:37.918Z,101512.16
2023-05-05T01:52:08.313Z,101510.50
2023-05-05T01:54:43.384Z,101517.47
2023-05-05T01:57:12.567Z,101500.88
2023-05-05T01:59:41.103Z,101502.75
2023-05-05T02:02:12.358Z,101515.19
2023-05-05T02:04:44.978Z,101499.28
2023-05-05T02:07:14.219Z,101494.03
2023-05-05T02:09:45.645Z,101506.63
2023-05-05T02:12:14.233Z,101502.34
2023-05-05T02:14:45.345Z,101512.09
2023-05-05T02:17:16.211Z,101521.13
2023-05-05T02:19:46.896Z,101518.47
2023-05-05T02:22:16.864Z,101528.28
2023-05-05T02:24:45.656Z,101522.16
2023-05-05T02:27:17.189Z,101518.59
2023-05-05T02:29:49.447Z,101516.88
2023-05-05T02:32:23.659Z,101518.72
2023-05-05T02:34:54.138Z,101518.81
2023-05-05T02:37:25.963Z,101522.41
2023-05-05T02:39:59.396Z,101523.31
2023-05-05T02:42:30.303Z,101528.88
2023-05-05T02:45:03.368Z,101535.06
2023-05-05T02:47:45.334Z,101528.06
2023-05-05T02:50:13.374Z,101537.94
2023-05-05T02:52:50.417Z,101528.19
2023-05-05T02:55:18.308Z,101527.44
2023-05-05T02:57:50.922Z,101540.78
2023-05-05T03:00:25.431Z,101537.28
2023-05-05T03:03:02.339Z,101549.69
2023-05-05T03:05:38.743Z,101547.06
2023-05-05T03:08:12.079Z,101550.69
2023-05-05T03:10:48.921Z,101549.75
2023-05-05T03:13:19.675Z,101541.81
2023-05-05T03:15:50.928Z,101549.69
2023-05-05T03:18:23.595Z,101549.72
2023-05-05T03:20:52.668Z,101533.88
2023-05-05T03:23:22.815Z,101537.50
2023-05-05T03:25:51.974Z,101551.75
2023-05-05T03:28:19.753Z,101547.44
2023-05-05T03:30:47.606Z,101549.25
2023-05-05T03:33:16.802Z,101554.66
2023-05-05T03:35:46.193Z,101557.44
2023-05-05T03:38:14.063Z,101568.09
2023-05-05T03:40:44.825Z,101567.31
2023-05-05T03:43:13.114Z,101567.31
2023-05-05T03:45:41.206Z,101552.34
2023-05-05T03:48:10.111Z,101571.69
2023-05-05T03:50:37.994Z,101550.34
2023-05-05T03:53:07.290Z,101558.28
2023-05-05T03:55:35.253Z,101546.78
2023-05-05T03:58:03.517Z,101543.91
2023-05-05T04:00:31.695Z,101533.19
2023-05-05T04:02:59.739Z,101530.53
2023-05-05T04:05:27.920Z,101532.19
2023-05-05T04:07:58.007Z,101535.69
2023-05-05T04:10:27.875Z,101525.00
2023-05-05T04:12:56.491Z,101505.34
2023-05-05T04:15:24.474Z,101513.28
2023-05-05T04:17:52.525Z,101512.22
2023-05-05T04:20:20.593Z,101503.28
2023-05-05T04:22:49.399Z,101498.75
2023-05-05T04:25:19.520Z,101503.09
2023-05-05T04:27:48.765Z,101507.34
2023-05-05T04:30:16.671Z,101509.75
2023-05-05T04:32:44.649Z,101518.28
2023-05-05T04:35:12.627Z,101507.47
2023-05-05T04:37:40.543Z,101517.78
2023-05-05T04:40:10.549Z,101498.09
2023-05-05T04:42:38.406Z,101511.88
2023-05-05T04:45:09.691Z,101506.06
2023-05-05T04:47:40.833Z,101507.09
2023-05-05T04:50:09.932Z,101492.16
2023-05-05T04:52:38.086Z,101466.38
2023-05-05T04:55:06.946Z,101497.97
2023-05-05T04:57:34.696Z,101472.44
2023-05-05T05:00:04.582Z,101489.59
2023-05-05T05:02:34.032Z,101459.22
2023-05-05T05:05:02.047Z,101337.97
2023-05-05T05:07:30.113Z,101298.88
2023-05-05T05:09:58.038Z,101251.44
2023-05-05T05:12:26.063Z,101150.66
2023-05-05T05:14:55.096Z,101112.47
2023-05-05T05:17:24.100Z,101059.88
2023-05-05T05:19:54.418Z,100924.53
2023-05-05T05:22:23.129Z,101020.94
2023-05-05T05:24:52.296Z,100965.19
2023-05-05T05:27:20.703Z,100924.72
2023-05-05T05:29:48.660Z,100756.84
2023-05-05T05:32:16.655Z,100956.41
2023-05-05T05:34:44.856Z,100738.72
2023-05-05T05:37:14.462Z,100743.06
2023-05-05T05:39:43.481Z,100756.59
2023-05-05T05:42:11.662Z,100789.03
2023-05-05T05:44:39.511Z,100800.69
2023-05-05T05:47:07.333Z,100849.53
2023-05-05T05:49:35.232Z,100853.56
2023-05-05T05:52:03.135Z,100916.13
2023-05-05T05:54:34.353Z,101068.91
2023-05-05T05:57:02.492Z,100970.44
2023-05-05T05:59:30.816Z,100987.38
2023-05-05T06:01:58.800Z,100960.78
2023-05-05T06:04:26.695Z,100944.28
2023-05-05T06:06:54.705Z,100996.13
2023-05-05T06:09:22.596Z,100910.69
2023-05-05T06:11:52.070Z,100772.06
2023-05-05T06:14:20.195Z,100807.88
2023-05-05T06:16:48.413Z,100889.75
2023-05-05T06:19:16.260Z,100684.03
2023-05-05T06:21:43.986Z,100808.84
2023-05-05T06:24:12.089Z,100711.16
2023-05-05T06:26:39.938Z,100718.03
2023-05-05T06:29:11.028Z,100792.34
2023-05-05T06:31:40.144Z,100775.09
2023-05-05T06:34:08.192Z,100941.75
2023-05-05T06:36:39.323Z,100740.91
2023-05-05T06:39:07.235Z,100797.00
2023-05-05T06:41:35.166Z,100937.28
2023-05-05T06:44:03.793Z,100718.91
2023-05-05T06:46:33.058Z,100600.34
2023-05-05T06:49:01.020Z,100424.84
2023-05-05T06:51:28.844Z,100485.84
2023-05-05T06:53:56.652Z,100550.63
2023-05-05T06:56:24.650Z,100692.78
2023-05-05T06:58:52.513Z,100769.63
2023-05-05T07:01:20.425Z,100790.81
2023-05-05T07:03:49.893Z,100809.56
2023-05-05T07:06:17.918Z,100689.22
2023-05-05T07:08:45.805Z,100692.63
2023-05-05T07:11:13.700Z,100682.97
2023-05-05T07:13:41.538Z,100685.44
2023-05-05T07:16:09.475Z,100687.53
2023-05-05T07:18:38.424Z,100728.50
2023-05-05T07:21:07.722Z,100719.31
2023-05-05T07:23:37.346Z,100653.69
2023-05-05T07:26:05.346Z,100616.19
2023-05-05T07:28:33.211Z,100551.91
2023-05-05T07:31:01.282Z,100505.06
2023-05-05T07:33:29.264Z,100517.00
2023-05-05T07:35:57.266Z,100585.41
2023-05-05T07:38:26.682Z,100484.97
2023-05-05T07:40:54.543Z,100630.81
2023-05-05T07:43:22.453Z,100615.84
2023-05-05T07:45:50.353Z,100717.28
2023-05-05T07:48:18.281Z,100708.47
2023-05-05T07:50:46.240Z,100660.81
2023-05-05T07:53:15.495Z,100687.69
2023-05-05T07:55:44.720Z,100484.88
2023-05-05T07:58:12.643Z,100591.19
2023-05-05T08:00:40.879Z,100564.97
2023-05-05T08:03:11.686Z,100588.59
2023-05-05T08:05:40.527Z,100498.25
2023-05-05T08:08:08.488Z,100396.28
2023-05-05T08:10:37.259Z,100517.41
2023-05-05T08:13:06.645Z,100444.72
2023-05-05T08:15:34.514Z,100303.22
2023-05-05T08:18:02.519Z,100404.13
2023-05-05T08:20:30.942Z,100492.53
2023-05-05T08:22:58.821Z,100533.50
2023-05-05T08:25:27.514Z,100598.19
2023-05-05T08:27:55.662Z,100476.59
2023-05-05T08:30:25.084Z,100508.56
2023-05-05T08:32:53.007Z,100595.72
2023-05-05T08:35:21.194Z,100476.72
2023-05-05T08:37:49.135Z,100387.53
2023-05-05T08:40:16.897Z,100376.34
2023-05-05T08:42:46.406Z,100514.03
2023-05-05T08:45:14.371Z,100580.63
2023-05-05T08:47:44.756Z,100567.38
2023-05-05T08:50:13.654Z,100588.09
2023-05-05T08:52:44.796Z,100570.44
2023-05-05T08:55:19.365Z,100543.34
2023-05-05T08:57:52.674Z,100615.28
2023-05-05T09:00:21.875Z,100593.63
2023-05-05T09:02:51.673Z,100462.25
2023-05-05T09:05:19.879Z,100521.06
2023-05-05T09:07:47.832Z,100542.66
2023-05-05T09:10:15.879Z,100614.59
2023-05-05T09:12:44.064Z,100581.59
2023-05-05T09:15:13.777Z,100567.84
2023-05-05T09:17:42.974Z,100684.44
2023-05-05T09:20:13.696Z,100689.78
2023-05-05T09:22:46.720Z,100762.38
2023-05-05T09:25:15.589Z,100583.34
2023-05-05T09:27:45.853Z,100631.56
2023-05-05T09:30:16.681Z,100679.06
2023-05-05T09:32:48.841Z,100556.88
2023-05-05T09:35:19.677Z,100657.94
2023-05-05T09:37:50.813Z,100648.69
2023-05-05T09:40:21.396Z,100686.84
2023-05-05T09:42:49.554Z,100629.00
2023-05-05T09:45:27.870Z,100610.25
2023-05-05T09:47:59.661Z,100619.28
2023-05-05T09:50:32.698Z,100712.50
2023-05-05T09:53:01.999Z,100696.47
2023-05-05T09:55:31.057Z,100734.94
2023-05-05T09:58:17.801Z,100728.41
2023-05-05T10:00:45.993Z,100594.31
2023-05-05T10:03:14.011Z,100645.25
2023-05-05T10:05:51.963Z,100626.56
2023-05-05T10:08:21.860Z,100645.59
2023-05-05T10:10:57.675Z,100685.25
2023-05-05T10:13:26.180Z,100721.63
2023-05-05T10:15:58.288Z,100649.06
2023-05-05T10:18:30.476Z,100759.47
2023-05-05T10:21:01.786Z,100632.91
2023-05-05T10:23:37.458Z,100657.78
2023-05-05T10:26:08.745Z,100609.03
2023-05-05T10:28:45.072Z,100532.38
2023-05-05T10:31:25.791Z,100615.16
2023-05-05T10:33:56.498Z,100603.31
2023-05-05T10:36:26.461Z,100655.28
2023-05-05T10:38:57.475Z,100596.50
2023-05-05T10:41:26.338Z,100722.03
2023-05-05T10:43:57.237Z,100740.19
2023-05-05T10:46:26.205Z,100626.50
2023-05-05T10:49:01.031Z,100604.28
2023-05-05T10:51:41.673Z,100556.06
2023-05-05T10:54:15.007Z,100740.53
2023-05-05T10:56:43.950Z,100636.16
2023-05-05T10:59:48.888Z,100560.78
2023-05-05T11:02:27.197Z,100634.16
2023-05-05T11:05:09.511Z,100615.63
2023-05-05T11:07:39.045Z,100705.50
2023-05-05T11:10:08.195Z,100714.75
2023-05-05T11:13:05.953Z,100715.91
2023-05-05T11:15:38.573Z,100749.06
2023-05-05T11:18:08.378Z,100743.66
2023-05-05T11:21:05.499Z,100652.47
2023-05-05T11:23:35.286Z,100533.63
2023-05-05T11:26:06.568Z,100430.56
2023-05-05T11:28:34.616Z,100406.50
2023-05-05T11:31:19.697Z,100534.69
2023-05-05T11:33:48.136Z,100411.19
2023-05-05T11:36:17.876Z,100437.47
2023-05-05T11:39:02.804Z,100446.44
2023-05-05T11:42:14.071Z,100491.44
2023-05-05T11:44:42.613Z,100602.19
2023-05-05T11:47:30.570Z,100434.88
2023-05-05T11:49:58.714Z,100536.53
2023-05-05T11:52:28.424Z,100526.06
2023-05-05T11:55:02.336Z,100503.38
2023-05-05T11:57:31.475Z,100492.13
2023-05-05T12:00:01.671Z,100584.78
2023-05-05T12:02:31.414Z,100508.41
2023-05-05T12:05:00.961Z,100503.69
2023-05-05T12:07:30.482Z,100458.28
2023-05-05T12:10:06.595Z,100588.91
2023-05-05T12:12:36.661Z,100542.19
2023-05-05T12:15:05.617Z,100381.91
2023-05-05T12:17:42.728Z,100411.50
2023-05-05T12:20:12.315Z,100500.13
2023-05-05T12:22:40.819Z,100500.44
2023-05-05T12:25:11.131Z,100594.94
2023-05-05T12:27:40.518Z,100650.94
2023-05-05T12:30:16.803Z,100615.00
2023-05-05T12:32:45.733Z,100530.34
2023-05-05T12:35:14.755Z,100540.81
2023-05-05T12:37:44.567Z,100539.94
2023-05-05T12:40:45.747Z,100581.88
2023-05-05T12:43:30.632Z,100550.94
2023-05-05T12:46:06.422Z,100494.38
2023-05-05T12:48:34.993Z,100576.63
2023-05-05T12:51:13.939Z,100519.22
2023-05-05T12:53:41.845Z,100491.44
2023-05-05T12:56:31.067Z,100522.81
2023-05-05T12:59:00.998Z,100563.22
2023-05-05T13:01:29.213Z,100513.47
2023-05-05T13:04:10.068Z,100538.81
2023-05-05T13:06:38.803Z,100461.44
2023-05-05T13:09:07.572Z,100499.53
2023-05-05T13:11:42.320Z,100540.53
2023-05-05T13:14:11.685Z,100483.72
2023-05-05T13:16:39.805Z,100490.56
2023-05-05T13:19:07.711Z,100465.28
2023-05-05T13:21:35.507Z,100581.38
2023-05-05T13:24:19.097Z,100445.72
2023-05-05T13:26:52.061Z,100421.75
2023-05-05T13:29:23.585Z,100374.63
2023-05-05T13:31:54.584Z,100457.56
2023-05-05T13:34:22.527Z,100460.69
2023-05-05T13:36:50.595Z,100413.88
2023-05-05T13:39:18.470Z,100504.09
2023-05-05T13:41:46.267Z,100508.22
2023-05-05T13:44:14.855Z,100483.69
2023-05-05T13:46:44.267Z,100428.69
2023-05-05T13:49:12.265Z,100411.75
2023-05-05T13:51:40.115Z,100399.16
2023-05-05T13:54:08.528Z,100371.06
2023-05-05T13:56:36.500Z,100401.31
2023-05-05T13:59:04.290Z,100417.56
2023-05-05T14:01:32.440Z,100330.03
2023-05-05T14:04:04.521Z,100313.25
2023-05-05T14:06:33.849Z,100355.84
2023-05-05T14:09:05.642Z,100364.47
2023-05-05T14:11:33.601Z,100327.00
2023-05-05T14:14:01.642Z,100376.50
2023-05-05T14:16:29.614Z,100383.28
2023-05-05T14:18:57.540Z,100402.91
2023-05-05T14:21:27.662Z,100358.97
2023-05-05T14:23:55.782Z,100334.78
2023-05-05T14:26:23.625Z,100348.25
2023-05-05T14:28:51.566Z,100364.00
2023-05-05T14:31:27.370Z,100337.94
2023-05-05T14:33:55.254Z,100384.63
2023-05-05T14:36:23.570Z,100333.38
2023-05-05T14:38:52.862Z,100406.19
2023-05-05T14:41:21.156Z,100423.97
2023-05-05T14:43:54.237Z,100436.97
2023-05-05T14:46:22.136Z,100383.16
2023-05-05T14:48:50.059Z,100455.97
2023-05-05T14:51:22.118Z,100421.84
2023-05-05T14:53:51.175Z,100450.84
2023-05-05T14:56:21.867Z,100397.34
2023-05-05T14:58:49.835Z,100388.06
2023-05-05T15:01:17.818Z,100378.50
2023-05-05T15:03:46.244Z,100388.38
2023-05-05T15:06:14.213Z,100413.75
2023-05-05T15:08:42.010Z,100403.38
2023-05-05T15:11:09.981Z,100379.88
2023-05-05T15:13:41.358Z,100399.13
2023-05-05T15:16:09.671Z,100490.44
2023-05-05T15:18:37.726Z,100473.47
2023-05-05T15:21:05.834Z,100417.84
2023-05-05T15:23:33.704Z,100378.91
2023-05-05T15:26:01.771Z,100428.53
2023-05-05T15:28:29.712Z,100464.31
2023-05-05T15:31:03.312Z,100380.47
2023-05-05T15:33:33.617Z,100384.63
2023-05-05T15:36:01.510Z,100380.16
2023-05-05T15:38:30.643Z,100380.84
2023-05-05T15:40:58.437Z,100395.13
2023-05-05T15:43:26.480Z,100383.69
2023-05-05T15:45:55.120Z,100446.84
2023-05-05T15:48:24.388Z,100417.19
2023-05-05T15:50:52.254Z,100423.47
2023-05-05T15:53:20.212Z,100497.00
2023-05-05T15:55:48.051Z,100455.66
2023-05-05T15:58:18.621Z,100508.72
2023-05-05T16:00:46.491Z,100504.16
2023-05-05T16:03:14.386Z,100491.34
2023-05-05T16:05:43.712Z,100543.22
2023-05-05T16:08:11.647Z,100431.41
2023-05-05T16:10:39.587Z,100480.16
2023-05-05T16:13:07.543Z,100482.44
2023-05-05T16:15:35.852Z,100476.75
2023-05-05T16:18:03.924Z,100467.91
2023-05-05T16:20:31.869Z,100505.66
2023-05-05T16:23:01.034Z,100456.19
2023-05-05T16:25:28.958Z,100442.47
2023-05-05T16:27:57.571Z,100432.94
2023-05-05T16:30:25.965Z,100468.97
2023-05-05T16:32:54.641Z,100426.22
2023-05-05T16:35:26.572Z,100459.53
2023-05-05T16:37:54.721Z,100462.97
2023-05-05T16:40:26.793Z,100451.69
2023-05-05T16:42:54.694Z,100462.34
2023-05-05T16:45:22.584Z,100461.91
2023-05-05T16:47:50.496Z,100493.75
2023-05-05T16:50:18.463Z,100487.91
2023-05-05T16:52:46.388Z,100452.19
2023-05-05T16:55:14.489Z,100465.00
2023-05-05T16:57:43.867Z,100434.63
2023-05-05T17:00:12.634Z,100443.50
2023-05-05T17:02:40.516Z,100450.59
2023-05-05T17:05:09.810Z,100427.69
2023-05-05T17:07:37.888Z,100407.00
2023-05-05T17:10:06.817Z,100445.72
2023-05-05T17:12:34.806Z,100439.28
2023-05-05T17:15:04.246Z,100441.59
2023-05-05T17:17:32.146Z,100467.13
2023-05-05T17:20:01.080Z,100463.25
2023-05-05T17:22:29.029Z,100488.78
2023-05-05T17:24:56.978Z,100473.19
2023-05-05T17:27:25.042Z,100483.13
2023-05-05T17:29:53.671Z,100493.81
2023-05-05T17:32:22.932Z,100470.88
2023-05-05T17:34:50.762Z,100497.13
2023-05-05T17:37:21.854Z,100502.81
2023-05-05T17:39:50.186Z,100520.97
2023-05-05T17:42:22.955Z,100532.84
2023-05-05T17:44:51.266Z,100544.03
2023-05-05T17:47:22.178Z,100552.13
2023-05-05T17:49:53.788Z,100584.63
2023-05-05T17:52:24.084Z,100590.63
2023-05-05T17:54:55.279Z,100613.91
2023-05-05T17:57:23.251Z,100617.81
2023-05-05T17:59:53.225Z,100647.66
2023-05-05T18:02:21.235Z,100663.44
2023-05-05T18:04:49.223Z,100671.00
2023-05-05T18:07:18.504Z,100689.69
2023-05-05T18:09:46.424Z,100676.91
2023-05-05T18:12:14.296Z,100685.22
2023-05-05T18:14:42.171Z,100694.00
2023-05-05T18:17:10.010Z,100684.06
2023-05-05T18:19:39.021Z,100693.25
2023-05-05T18:22:06.967Z,100689.03
2023-05-05T18:24:36.159Z,100693.41
2023-05-05T18:27:06.318Z,100726.97
2023-05-05T18:29:35.163Z,100719.09
2023-05-05T18:32:03.020Z,100743.47
2023-05-05T18:34:31.241Z,100750.81
2023-05-05T18:37:00.362Z,100777.34
2023-05-05T18:39:31.422Z,100768.75
2023-05-05T18:42:00.710Z,100765.31
2023-05-05T18:44:28.726Z,100766.25
2023-05-05T18:46:56.683Z,100771.97
2023-05-05T18:49:24.999Z,100766.94
2023-05-05T18:51:53.732Z,100784.09
2023-05-05T18:54:21.951Z,100778.16
2023-05-05T18:56:50.001Z,100786.88
2023-05-05T18:59:19.286Z,100805.63
2023-05-05T19:01:47.133Z,100822.03
2023-05-05T19:07:09.322Z,100831.09
2023-05-05T19:09:37.344Z,100844.75
2023-05-05T19:12:05.755Z,100864.47
2023-05-05T19:14:35.012Z,100834.72
2023-05-05T19:17:03.108Z,100848.00
2023-05-05T19:19:31.295Z,100828.03
2023-05-05T19:21:59.951Z,100833.75
2023-05-05T19:24:29.180Z,100845.50
2023-05-05T19:26:57.191Z,100834.44
2023-05-05T19:29:25.044Z,100832.06
2023-05-05T19:31:54.349Z,100843.91
2023-05-05T19:34:22.195Z,100843.28
2023-05-05T19:36:50.387Z,100862.88
2023-05-05T19:39:18.233Z,100870.38
2023-05-05T19:41:46.496Z,100876.16
2023-05-05T19:44:14.266Z,100878.28
2023-05-05T19:46:44.516Z,100888.19
2023-05-05T19:49:14.576Z,100884.19
2023-05-05T19:51:43.841Z,100895.72
2023-05-05T19:54:13.380Z,100881.91
2023-05-05T19:56:41.252Z,100889.44
2023-05-05T19:59:09.280Z,100896.81
2023-05-05T20:01:37.204Z,100896.19
2023-05-05T20:04:05.116Z,100914.41
2023-05-05T20:06:35.846Z,100946.59
2023-05-05T20:09:03.814Z,100925.59
2023-05-05T20:11:32.164Z,100941.03
2023-05-05T20:14:00.140Z,100933.34
2023-05-05T20:16:28.095Z,100943.47
2023-05-05T20:18:56.078Z,100963.22
2023-05-05T20:21:24.166Z,100973.13
2023-05-05T20:23:54.499Z,100978.03
2023-05-05T20:26:22.604Z,100972.94
2023-05-05T20:28:54.242Z,100984.84
2023-05-05T20:31:22.247Z,100969.84
2023-05-05T20:33:50.031Z,100970.13
2023-05-05T20:36:19.377Z,100980.03
2023-05-05T20:38:47.223Z,100979.34
2023-05-05T20:41:16.622Z,100975.19
2023-05-05T20:43:48.534Z,100980.47
2023-05-05T20:46:16.636Z,100996.00
2023-05-05T20:48:45.590Z,101017.59
2023-05-05T20:51:13.431Z,101009.13
2023-05-05T20:53:41.371Z,101015.44
2023-05-05T20:56:09.393Z,101013.03
2023-05-05T20:58:38.676Z,101014.94
2023-05-05T21:01:06.657Z,101025.03
2023-05-05T21:03:34.536Z,101012.53
2023-05-05T21:06:03.020Z,101014.56
2023-05-05T21:08:31.136Z,101020.00
2023-05-05T21:10:58.964Z,101021.94
2023-05-05T21:13:26.933Z,101020.38
2023-05-05T21:15:56.288Z,101034.97
2023-05-05T21:18:25.727Z,101043.75
2023-05-05T21:20:53.574Z,101030.81
2023-05-05T21:23:21.599Z,101036.63
2023-05-05T21:25:49.649Z,101036.78
2023-05-05T21:28:17.646Z,101058.44
2023-05-05T21:30:54.921Z,101067.72
2023-05-05T21:33:34.515Z,101135.75
2023-05-05T21:36:02.439Z,101191.84
2023-05-05T21:38:30.421Z,101219.16
2023-05-05T21:40:58.988Z,101237.41
2023-05-05T21:43:28.598Z,101212.94
2023-05-05T21:46:00.786Z,101189.97
2023-05-05T21:48:28.684Z,101190.13
2023-05-05T21:50:58.460Z,101183.19
2023-05-05T21:53:26.484Z,101157.31
2023-05-05T21:55:54.556Z,101187.59
2023-05-05T21:58:22.658Z,101181.44
2023-05-05T22:00:50.730Z,101212.38
2023-05-05T22:03:18.852Z,101210.97
2023-05-05T22:05:47.224Z,101260.78
2023-05-05T22:08:16.559Z,101277.22
2023-05-05T22:10:44.508Z,101267.91
2023-05-05T22:13:12.582Z,101256.00
2023-05-05T22:15:46.688Z,101272.97
2023-05-05T22:18:15.732Z,101282.09
2023-05-05T22:20:44.026Z,101273.22
2023-05-05T22:23:13.990Z,101260.19
2023-05-05T22:25:44.373Z,101274.78
2023-05-05T22:28:12.511Z,101298.91
2023-05-05T22:30:40.651Z,101267.28
2023-05-05T22:33:09.055Z,101258.59
2023-05-05T22:35:38.245Z,101279.41
2023-05-05T22:38:06.370Z,101302.88
2023-05-05T22:40:34.297Z,101307.78
2023-05-05T22:43:03.468Z,101313.56
2023-05-05T22:45:31.330Z,101297.84
2023-05-05T22:48:04.099Z,101312.19
2023-05-05T22:50:32.055Z,101315.06
2023-05-05T22:53:00.142Z,101315.31
2023-05-05T22:55:27.980Z,101310.97
2023-05-05T22:57:56.019Z,101305.03
2023-05-05T23:00:28.393Z,101315.13
2023-05-05T23:02:56.585Z,101313.50
2023-05-05T23:05:24.810Z,101301.56
2023-05-05T23:07:52.593Z,101316.78
2023-05-05T23:10:20.344Z,101312.84
2023-05-05T23:12:48.178Z,101322.53
2023-05-05T23:15:16.252Z,101326.25
2023-05-05T23:17:45.518Z,101327.41
2023-05-05T23:20:14.145Z,101331.84
2023-05-05T23:22:42.351Z,101321.44
2023-05-05T23:25:11.302Z,101326.78
2023-05-05T23:27:41.075Z,101314.47
2023-05-05T23:30:10.273Z,101319.19
2023-05-05T23:32:38.185Z,101319.34
2023-05-05T23:35:08.844Z,101310.56
2023-05-05T23:37:36.824Z,101315.97
2023-05-05T23:40:05.357Z,101308.03
2023-05-05T23:42:33.175Z,101311.75
2023-05-05T23:45:01.360Z,101317.19
2023-05-05T23:47:29.242Z,101321.00
2023-05-05T23:49:58.442Z,101324.66
2023-05-05T23:52:33.364Z,101333.84
2023-05-05T23:55:01.228Z,101340.13
2023-05-05T23:57:29.117Z,101338.56
2023-05-05T23:59:56.863Z,101337.69
